Arcadia, Indiana
Current Conditions -  °F | °C
As of 10:35 AM on Friday 19 Dec 2014 (Local Time) from KTYQ Reporting Station
Overcast Overcast  
Wind Chill: 27°   Ceiling: 2300
Heat Index: 27°   Visibility: 7mi
Dew Point: 20°   Wind: 0mph
Humidity: 77%   Direction: NA
Pressure: 30.31"   Gusts: NA
Location:  40.18°N, 86.02°W
Report Text: KTYQ 191535Z AUTO 00000KT 7SM OVC023 M03/M06 A3031 RMK AO2 T10301065
Loading
Personal Weather Stations






























Interactive Weather Map New forecast layout! Learn more

10-Day Weather Forecast

Advertisements
Track Severe Weather on mobile